createdAt,value
2022-10-23T00:00:34.439Z,68.25
2022-10-23T00:01:39.857Z,68.63
2022-10-23T00:02:42.283Z,68.50
2022-10-23T00:03:45.249Z,68.53
2022-10-23T00:04:51.748Z,68.42
2022-10-23T00:05:53.935Z,68.51
2022-10-23T00:06:56.191Z,68.56
2022-10-23T00:08:00.707Z,68.67
2022-10-23T00:09:06.098Z,68.50
2022-10-23T00:10:10.567Z,68.61
2022-10-23T00:11:15.950Z,68.78
2022-10-23T00:12:18.830Z,68.59
2022-10-23T00:13:21.146Z,68.51
2022-10-23T00:14:24.875Z,68.74
2022-10-23T00:15:27.625Z,68.50
2022-10-23T00:16:30.019Z,68.71
2022-10-23T00:17:35.101Z,68.60
2022-10-23T00:18:41.003Z,68.60
2022-10-23T00:19:43.243Z,68.78
2022-10-23T00:20:45.618Z,68.68
2022-10-23T00:21:47.814Z,68.71
2022-10-23T00:22:50.182Z,68.55
2022-10-23T00:23:52.727Z,68.64
2022-10-23T00:24:54.915Z,68.59
2022-10-23T00:25:57.125Z,68.68
2022-10-23T00:26:59.305Z,68.46
2022-10-23T00:28:04.297Z,68.50
2022-10-23T00:29:08.178Z,68.33
2022-10-23T00:30:11.588Z,68.62
2022-10-23T00:31:14.622Z,68.62
2022-10-23T00:32:16.883Z,68.41
2022-10-23T00:33:19.093Z,68.59
2022-10-23T00:34:21.354Z,68.52
2022-10-23T00:35:25.865Z,68.44
2022-10-23T00:36:30.452Z,68.68
2022-10-23T00:37:33.454Z,68.56
2022-10-23T00:38:36.368Z,68.71
2022-10-23T00:39:38.544Z,68.64
2022-10-23T00:40:42.432Z,68.44
2022-10-23T00:41:44.731Z,68.54
2022-10-23T00:42:47.028Z,68.51
2022-10-23T00:44:18.174Z,68.60
2022-10-23T00:45:26.684Z,68.35
2022-10-23T00:46:30.030Z,68.44
2022-10-23T00:47:32.310Z,68.51
2022-10-23T00:48:34.485Z,68.46
2022-10-23T00:49:38.377Z,68.35
2022-10-23T00:50:42.414Z,68.58
2022-10-23T00:51:49.075Z,68.63
2022-10-23T00:52:53.668Z,68.58
2022-10-23T00:54:22.786Z,68.65
2022-10-23T00:55:28.415Z,68.49
2022-10-23T00:56:32.861Z,68.70
2022-10-23T00:57:35.387Z,68.68
2022-10-23T00:58:37.627Z,68.45
2022-10-23T00:59:43.176Z,68.58
2022-10-23T01:00:55.912Z,68.76
2022-10-23T01:02:00.028Z,68.62
2022-10-23T01:03:04.368Z,68.45
2022-10-23T01:04:08.174Z,68.66
2022-10-23T01:05:10.844Z,68.62
2022-10-23T01:06:45.385Z,68.70
2022-10-23T01:08:02.114Z,68.51
2022-10-23T01:09:18.849Z,68.64
2022-10-23T01:10:27.968Z,68.58
2022-10-23T01:11:42.373Z,68.66
2022-10-23T01:12:56.046Z,68.77
2022-10-23T01:15:37.179Z,68.77
2022-10-23T01:16:51.457Z,68.72
2022-10-23T01:18:21.147Z,68.92
2022-10-23T01:19:43.326Z,68.92
2022-10-23T01:20:57.485Z,69.12
2022-10-23T01:22:14.184Z,69.24
2022-10-23T01:23:34.994Z,69.09
2022-10-23T01:25:05.488Z,69.12
2022-10-23T01:26:56.969Z,69.29
2022-10-23T01:28:07.958Z,69.24
2022-10-23T01:29:15.909Z,69.33
2022-10-23T01:30:18.541Z,69.19
2022-10-23T01:31:49.591Z,69.33
2022-10-23T01:33:01.825Z,69.45
2022-10-23T01:34:13.144Z,69.39
2022-10-23T01:35:38.280Z,69.20
2022-10-23T01:36:46.880Z,69.34
2022-10-23T01:38:09.387Z,69.51
2022-10-23T01:39:16.283Z,69.46
2022-10-23T01:40:28.379Z,69.52
2022-10-23T01:41:43.077Z,69.50
2022-10-23T01:42:51.198Z,69.52
2022-10-23T01:44:11.220Z,69.44
2022-10-23T01:45:24.261Z,69.20
2022-10-23T01:46:28.171Z,69.54
2022-10-23T01:47:34.345Z,69.47
2022-10-23T01:48:46.094Z,69.43
2022-10-23T01:49:51.547Z,69.68
2022-10-23T01:50:57.116Z,69.57
2022-10-23T01:52:03.430Z,69.63
2022-10-23T01:53:07.562Z,69.74
2022-10-23T01:54:13.572Z,69.72
2022-10-23T01:55:17.760Z,69.53
2022-10-23T01:56:26.765Z,69.63
2022-10-23T01:57:33.365Z,69.60
2022-10-23T01:58:37.517Z,69.73
2022-10-23T01:59:44.739Z,69.82
2022-10-23T02:00:50.915Z,69.63
2022-10-23T02:01:57.157Z,69.75
2022-10-23T02:03:03.377Z,69.65
2022-10-23T02:04:11.704Z,69.88
2022-10-23T02:05:29.026Z,70.02
2022-10-23T02:06:32.612Z,69.85
2022-10-23T02:07:36.039Z,69.76
2022-10-23T02:08:38.327Z,69.72
2022-10-23T02:09:41.172Z,69.93
2022-10-23T02:10:52.689Z,70.08
2022-10-23T02:12:10.248Z,70.02
2022-10-23T02:13:25.325Z,70.02
2022-10-23T02:14:50.992Z,69.97
2022-10-23T02:16:22.233Z,70.01
2022-10-23T02:17:29.451Z,70.05
2022-10-23T02:19:00.885Z,70.06
2022-10-23T02:20:34.800Z,70.00
2022-10-23T02:22:00.998Z,70.29
2022-10-23T02:23:15.816Z,70.29
2022-10-23T02:24:27.904Z,70.03
2022-10-23T02:25:45.186Z,70.22
2022-10-23T02:26:57.761Z,70.28
2022-10-23T02:28:04.807Z,70.15
2022-10-23T02:29:27.069Z,70.23
2022-10-23T02:30:37.729Z,70.16
2022-10-23T02:31:45.744Z,70.41
2022-10-23T02:32:51.646Z,70.51
2022-10-23T02:33:54.340Z,70.21
2022-10-23T02:34:57.075Z,70.39
2022-10-23T02:35:59.545Z,70.33
2022-10-23T02:37:04.649Z,70.22
2022-10-23T02:38:37.131Z,70.31
2022-10-23T02:39:40.500Z,70.41
2022-10-23T02:40:46.165Z,70.48
2022-10-23T02:41:54.111Z,70.47
2022-10-23T02:43:05.810Z,70.56
2022-10-23T02:44:25.300Z,70.43
2022-10-23T02:45:43.861Z,70.56
2022-10-23T02:47:01.322Z,70.69
2022-10-23T02:48:18.427Z,70.49
2022-10-23T02:49:36.438Z,70.59
2022-10-23T02:51:02.721Z,70.60
2022-10-23T02:52:13.948Z,70.65
2022-10-23T02:53:20.701Z,70.71
2022-10-23T02:54:32.229Z,70.58
2022-10-23T02:56:11.723Z,70.60
2022-10-23T02:57:23.897Z,70.71
2022-10-23T02:58:31.730Z,70.82
2022-10-23T02:59:58.781Z,70.66
2022-10-23T03:01:08.805Z,70.71
2022-10-23T03:02:26.005Z,70.88
2022-10-23T03:03:34.772Z,70.75
2022-10-23T03:04:40.221Z,70.92
2022-10-23T03:05:45.665Z,70.85
2022-10-23T03:06:50.960Z,70.89
2022-10-23T03:07:53.591Z,70.99
2022-10-23T03:09:02.496Z,71.08
2022-10-23T03:10:05.143Z,70.84
2022-10-23T03:11:08.162Z,70.83
2022-10-23T03:12:10.674Z,71.01
2022-10-23T03:13:13.025Z,70.97
2022-10-23T03:14:17.373Z,71.17
2022-10-23T03:15:20.504Z,71.17
2022-10-23T03:16:24.925Z,70.82
2022-10-23T03:17:29.757Z,71.04
2022-10-23T03:18:34.651Z,71.15
2022-10-23T03:19:38.005Z,71.30
2022-10-23T03:20:40.574Z,71.17
2022-10-23T03:21:42.822Z,71.27
2022-10-23T03:22:45.751Z,71.29
2022-10-23T03:23:48.662Z,71.08
2022-10-23T03:24:53.972Z,71.05
2022-10-23T03:25:56.608Z,71.13
2022-10-23T03:27:08.893Z,71.27
2022-10-23T03:28:11.190Z,71.12
2022-10-23T03:29:13.634Z,71.04
2022-10-23T03:30:19.090Z,71.10
2022-10-23T03:31:25.418Z,71.04
2022-10-23T03:32:31.982Z,70.99
2022-10-23T03:33:35.796Z,71.13
2022-10-23T03:34:43.999Z,71.04
2022-10-23T03:35:49.143Z,71.07
2022-10-23T03:36:52.116Z,71.12
2022-10-23T03:37:56.378Z,71.15
2022-10-23T03:39:01.002Z,71.19
2022-10-23T03:40:04.109Z,71.09
2022-10-23T03:41:09.757Z,71.13
2022-10-23T03:42:12.218Z,71.14
2022-10-23T03:43:14.673Z,71.16
2022-10-23T03:44:17.021Z,70.97
2022-10-23T03:45:20.937Z,71.05
2022-10-23T03:46:24.513Z,70.98
2022-10-23T03:47:30.607Z,70.99
2022-10-23T03:48:33.369Z,71.09
2022-10-23T03:49:36.048Z,71.03
2022-10-23T03:50:41.918Z,71.06
2022-10-23T03:51:44.931Z,71.14
2022-10-23T03:52:47.170Z,70.97
2022-10-23T03:53:49.519Z,70.97
2022-10-23T03:54:51.747Z,71.04
2022-10-23T03:55:53.995Z,71.02
2022-10-23T03:56:57.717Z,71.09
2022-10-23T03:58:01.357Z,71.01
2022-10-23T03:59:04.160Z,71.14
2022-10-23T04:00:07.427Z,70.98
2022-10-23T04:01:29.730Z,71.01
2022-10-23T04:02:32.138Z,70.90
2022-10-23T04:03:34.425Z,70.83
2022-10-23T04:04:36.657Z,71.14
2022-10-23T04:05:39.245Z,71.10
2022-10-23T04:06:41.562Z,71.04
2022-10-23T04:07:43.988Z,70.98
2022-10-23T04:08:46.260Z,70.99
2022-10-23T04:09:51.245Z,71.00
2022-10-23T04:10:54.568Z,71.18
2022-10-23T04:12:05.336Z,70.93
2022-10-23T04:13:07.625Z,70.94
2022-10-23T04:14:15.515Z,70.98
2022-10-23T04:15:17.736Z,70.91
2022-10-23T04:16:24.898Z,71.06
2022-10-23T04:18:30.216Z,70.95
2022-10-23T04:19:32.564Z,71.01
2022-10-23T04:20:34.870Z,71.03
2022-10-23T04:21:38.431Z,70.94
2022-10-23T04:22:40.936Z,70.63
2022-10-23T04:23:43.897Z,70.87
2022-10-23T04:24:48.420Z,70.98
2022-10-23T04:25:57.273Z,70.83
2022-10-23T04:27:00.546Z,70.77
2022-10-23T04:28:05.456Z,70.89
2022-10-23T04:29:12.333Z,71.04
2022-10-23T04:30:14.902Z,70.93
2022-10-23T04:31:17.516Z,70.93
2022-10-23T04:32:19.770Z,71.03
2022-10-23T04:33:22.282Z,70.99
2022-10-23T04:34:26.992Z,71.06
2022-10-23T04:35:30.067Z,71.14
2022-10-23T04:36:32.524Z,71.07
2022-10-23T04:37:42.604Z,71.10
2022-10-23T04:38:45.047Z,70.95
2022-10-23T04:39:47.456Z,70.98
2022-10-23T04:40:49.887Z,70.88
2022-10-23T04:41:56.141Z,70.94
2022-10-23T04:43:00.637Z,70.98
2022-10-23T04:44:07.757Z,71.17
2022-10-23T04:45:13.674Z,71.27
2022-10-23T04:46:18.909Z,71.23
2022-10-23T04:47:23.205Z,71.25
2022-10-23T04:48:34.168Z,71.41
2022-10-23T04:49:56.407Z,71.55
2022-10-23T04:51:21.738Z,71.37
2022-10-23T04:52:38.389Z,71.61
2022-10-23T04:54:00.836Z,71.62
2022-10-23T04:55:28.866Z,71.81
2022-10-23T04:56:49.972Z,71.93
2022-10-23T04:57:54.839Z,71.96
2022-10-23T04:59:00.024Z,71.97
2022-10-23T05:00:05.569Z,72.12
2022-10-23T05:01:15.105Z,72.32
2022-10-23T05:02:17.783Z,72.29
2022-10-23T05:03:25.973Z,72.40
2022-10-23T05:04:28.212Z,72.46
2022-10-23T05:05:48.607Z,72.34
2022-10-23T05:07:05.511Z,72.60
2022-10-23T05:08:17.882Z,72.43
2022-10-23T05:09:58.951Z,72.69
2022-10-23T05:11:05.545Z,72.55
2022-10-23T05:12:12.752Z,72.72
2022-10-23T05:13:15.102Z,72.74
2022-10-23T05:14:20.619Z,72.94
2022-10-23T05:15:25.355Z,72.89
2022-10-23T05:16:55.690Z,73.01
2022-10-23T05:18:02.637Z,72.96
2022-10-23T05:19:09.089Z,73.07
2022-10-23T05:20:18.474Z,73.34
2022-10-23T05:21:27.335Z,73.16
2022-10-23T05:22:35.607Z,73.22
2022-10-23T05:23:43.045Z,73.14
2022-10-23T05:24:48.250Z,73.09
2022-10-23T05:25:55.681Z,73.10
2022-10-23T05:26:58.139Z,73.40
2022-10-23T05:28:00.426Z,73.37
2022-10-23T05:29:03.009Z,73.35
2022-10-23T05:30:06.029Z,73.41
2022-10-23T05:31:12.719Z,73.54
2022-10-23T05:32:17.263Z,73.56
2022-10-23T05:33:19.664Z,73.68
2022-10-23T05:34:27.294Z,73.60
2022-10-23T05:35:31.309Z,73.78
2022-10-23T05:36:33.604Z,73.68
2022-10-23T05:37:40.080Z,73.94
2022-10-23T05:38:54.777Z,73.77
2022-10-23T05:39:57.344Z,73.86
2022-10-23T05:40:59.635Z,73.93
2022-10-23T05:42:02.899Z,74.03
2022-10-23T05:43:06.671Z,74.09
2022-10-23T05:44:38.287Z,73.98
2022-10-23T05:45:59.431Z,74.26
2022-10-23T05:47:22.846Z,73.82
2022-10-23T05:48:43.584Z,73.92
2022-10-23T05:50:04.400Z,74.28
2022-10-23T05:51:40.305Z,74.16
2022-10-23T05:53:17.829Z,74.10
2022-10-23T05:54:38.543Z,74.05
2022-10-23T05:56:09.980Z,74.26
2022-10-23T05:57:35.068Z,74.33
2022-10-23T05:58:48.338Z,74.63
2022-10-23T06:00:03.909Z,74.52
2022-10-23T06:01:18.629Z,74.35
2022-10-23T06:02:33.012Z,74.42
2022-10-23T06:03:44.488Z,74.54
2022-10-23T06:04:47.734Z,74.69
2022-10-23T06:06:08.311Z,74.76
2022-10-23T06:07:23.538Z,74.84
2022-10-23T06:08:26.215Z,74.81
2022-10-23T06:09:29.116Z,74.82
2022-10-23T06:10:33.449Z,74.96
2022-10-23T06:11:39.359Z,75.05
2022-10-23T06:12:47.334Z,75.11
2022-10-23T06:13:52.228Z,75.00
2022-10-23T06:14:56.641Z,75.03
2022-10-23T06:16:14.988Z,75.09
2022-10-23T06:17:17.215Z,75.08
2022-10-23T06:18:22.065Z,75.15
2022-10-23T06:19:39.397Z,75.16
2022-10-23T06:20:42.399Z,75.27
2022-10-23T06:21:50.047Z,75.18
2022-10-23T06:23:08.967Z,75.42
2022-10-23T06:24:29.760Z,75.26
2022-10-23T06:25:37.410Z,75.41
2022-10-23T06:26:40.730Z,75.40
2022-10-23T06:27:46.256Z,75.39
2022-10-23T06:28:48.768Z,75.36
2022-10-23T06:29:51.027Z,75.41
2022-10-23T06:30:53.418Z,75.74
2022-10-23T06:31:55.723Z,75.53
2022-10-23T06:33:01.006Z,75.54
2022-10-23T06:34:06.133Z,75.66
2022-10-23T06:35:09.013Z,75.54
2022-10-23T06:36:11.478Z,75.60
2022-10-23T06:37:17.023Z,75.57
2022-10-23T06:38:52.308Z,75.82
2022-10-23T06:39:56.730Z,75.81
2022-10-23T06:41:17.048Z,75.79
2022-10-23T06:42:21.506Z,75.73
2022-10-23T06:43:30.740Z,75.76
2022-10-23T06:45:06.279Z,75.81
2022-10-23T06:46:12.090Z,75.79
2022-10-23T06:47:34.224Z,75.78
2022-10-23T06:48:54.927Z,75.82
2022-10-23T06:50:01.376Z,75.77
2022-10-23T06:51:08.795Z,75.97
2022-10-23T06:52:41.779Z,76.12
2022-10-23T06:53:40.356Z,76.39
2022-10-23T06:55:05.908Z,76.15
2022-10-23T06:56:12.265Z,76.14
2022-10-23T06:57:14.625Z,76.16
2022-10-23T06:58:21.011Z,76.24
2022-10-23T06:59:34.012Z,76.24
2022-10-23T07:00:38.912Z,76.46
2022-10-23T07:01:42.147Z,76.50
2022-10-23T07:02:46.053Z,76.45
2022-10-23T07:03:49.318Z,76.33
2022-10-23T07:04:55.582Z,76.52
2022-10-23T07:06:01.956Z,76.45
2022-10-23T07:07:04.502Z,76.42
2022-10-23T07:08:15.530Z,76.49
2022-10-23T07:09:20.205Z,76.50
2022-10-23T07:10:25.570Z,76.41
2022-10-23T07:11:32.142Z,76.37
2022-10-23T07:12:34.400Z,76.44
2022-10-23T07:13:59.395Z,76.29
2022-10-23T07:15:01.735Z,76.43
2022-10-23T07:16:31.019Z,76.49
2022-10-23T07:17:33.710Z,76.34
2022-10-23T07:18:35.965Z,76.22
2022-10-23T07:19:56.703Z,76.39
2022-10-23T07:20:59.245Z,76.29
2022-10-23T07:22:01.497Z,76.36
2022-10-23T07:23:26.229Z,76.41
2022-10-23T07:24:28.897Z,76.41
2022-10-23T07:25:33.030Z,76.53
2022-10-23T07:26:37.074Z,76.36
2022-10-23T07:27:40.105Z,76.48
2022-10-23T07:28:46.627Z,76.39
2022-10-23T07:29:53.427Z,76.45
2022-10-23T07:30:57.816Z,76.30
2022-10-23T07:32:01.894Z,76.27
2022-10-23T07:33:39.483Z,76.18
2022-10-23T07:34:49.678Z,76.44
2022-10-23T07:36:00.270Z,76.34
2022-10-23T07:37:04.400Z,76.23
2022-10-23T07:38:06.649Z,76.20
2022-10-23T07:39:12.711Z,76.13
2022-10-23T07:40:22.113Z,76.31
2022-10-23T07:41:27.475Z,76.06
2022-10-23T07:42:29.676Z,76.34
2022-10-23T07:43:33.785Z,76.47
2022-10-23T07:44:36.033Z,76.60
2022-10-23T07:45:38.278Z,76.75
2022-10-23T07:46:50.156Z,76.88
2022-10-23T07:47:53.251Z,76.65
2022-10-23T07:48:59.079Z,76.78
2022-10-23T07:50:01.371Z,76.89
2022-10-23T07:51:08.585Z,77.07
2022-10-23T07:52:14.997Z,76.91
2022-10-23T07:53:42.822Z,76.37
2022-10-23T07:54:53.808Z,76.16
2022-10-23T07:56:02.258Z,75.89
2022-10-23T07:57:24.401Z,75.77
2022-10-23T07:58:34.544Z,75.57
2022-10-23T07:59:46.027Z,75.15
2022-10-23T08:00:55.774Z,74.74
2022-10-23T08:02:04.834Z,74.65
2022-10-23T08:03:12.923Z,74.60
2022-10-23T08:04:16.112Z,74.65
2022-10-23T08:05:27.131Z,74.48
2022-10-23T08:06:35.502Z,74.65
2022-10-23T08:07:37.896Z,74.54
2022-10-23T08:08:41.103Z,74.49
2022-10-23T08:09:44.338Z,74.41
2022-10-23T08:10:48.347Z,74.16
2022-10-23T08:11:56.379Z,73.90
2022-10-23T08:13:01.578Z,73.34
2022-10-23T08:14:23.795Z,72.48
2022-10-23T08:15:26.109Z,72.62
2022-10-23T08:16:36.387Z,71.96
2022-10-23T08:17:39.329Z,71.83
2022-10-23T08:18:49.729Z,71.81
2022-10-23T08:19:53.441Z,71.75
2022-10-23T08:21:02.001Z,71.24
2022-10-23T08:22:04.591Z,71.36
2022-10-23T08:23:08.513Z,70.55
2022-10-23T08:24:14.030Z,70.15
2022-10-23T08:25:21.849Z,69.73
2022-10-23T08:26:30.568Z,68.63
2022-10-23T08:27:32.835Z,68.52
2022-10-23T08:28:35.562Z,68.31
2022-10-23T08:29:38.478Z,67.73
2022-10-23T08:30:40.733Z,67.15
2022-10-23T08:31:42.942Z,66.20
2022-10-23T08:33:06.499Z,66.30
2022-10-23T08:34:08.821Z,66.13
2022-10-23T08:35:11.352Z,65.81
2022-10-23T08:36:16.490Z,65.58
2022-10-23T08:37:18.856Z,65.78
2022-10-23T08:38:21.127Z,65.80
2022-10-23T08:39:23.455Z,65.73
2022-10-23T08:41:04.156Z,65.80
2022-10-23T08:42:27.200Z,65.67
2022-10-23T08:43:41.738Z,64.54
2022-10-23T08:45:05.788Z,64.53
2022-10-23T08:46:18.065Z,64.24
2022-10-23T08:47:50.187Z,64.19
2022-10-23T08:49:41.314Z,64.47
2022-10-23T08:50:48.772Z,63.71
2022-10-23T08:51:55.975Z,63.52
2022-10-23T08:53:14.899Z,63.17
2022-10-23T08:54:22.931Z,63.20
2022-10-23T08:55:25.345Z,62.59
2022-10-23T08:56:31.060Z,62.87
2022-10-23T08:57:43.710Z,62.45
2022-10-23T08:58:55.583Z,62.02
2022-10-23T09:00:01.180Z,61.52
2022-10-23T09:01:30.863Z,61.39
2022-10-23T09:03:02.157Z,60.80
2022-10-23T09:04:05.375Z,60.49
2022-10-23T09:05:15.762Z,60.08
2022-10-23T09:06:30.051Z,60.72
2022-10-23T09:07:34.164Z,60.08
2022-10-23T09:08:59.560Z,59.64
2022-10-23T09:10:17.534Z,58.99
2022-10-23T09:11:40.161Z,59.08
2022-10-23T09:12:43.000Z,59.14
2022-10-23T09:14:09.900Z,59.49
2022-10-23T09:15:24.227Z,59.54
2022-10-23T09:16:49.116Z,59.60
2022-10-23T09:18:07.758Z,59.71
2022-10-23T09:19:17.673Z,59.44
2022-10-23T09:20:21.821Z,59.54
2022-10-23T09:21:29.368Z,59.49
2022-10-23T09:22:31.591Z,59.31
2022-10-23T09:23:33.857Z,58.94
2022-10-23T09:24:36.590Z,58.79
2022-10-23T09:25:41.145Z,58.23
2022-10-23T09:26:48.381Z,58.19
2022-10-23T09:27:56.155Z,58.05
2022-10-23T09:29:14.269Z,57.83
2022-10-23T09:30:36.677Z,58.36
2022-10-23T09:31:50.766Z,58.03
2022-10-23T09:32:52.983Z,57.14
2022-10-23T09:34:02.541Z,56.89
2022-10-23T09:35:06.206Z,56.51
2022-10-23T09:36:20.416Z,56.88
2022-10-23T09:37:22.642Z,56.87
2022-10-23T09:38:28.038Z,56.35
2022-10-23T09:39:34.571Z,56.91
2022-10-23T09:40:42.943Z,56.57
2022-10-23T09:41:45.877Z,56.55
2022-10-23T09:42:55.016Z,56.33
2022-10-23T09:44:26.049Z,56.55
2022-10-23T09:45:34.130Z,56.41
2022-10-23T09:46:41.618Z,56.26
2022-10-23T09:47:44.025Z,56.09
2022-10-23T09:48:59.034Z,55.96
2022-10-23T09:50:03.140Z,56.21
2022-10-23T09:51:22.065Z,56.91
2022-10-23T09:52:32.813Z,56.78
2022-10-23T09:53:38.914Z,56.64
2022-10-23T09:54:45.549Z,56.77
2022-10-23T09:55:53.667Z,56.69
2022-10-23T09:57:01.253Z,56.86
2022-10-23T09:58:03.452Z,56.65
2022-10-23T09:59:27.018Z,56.49
2022-10-23T10:00:29.242Z,56.84
2022-10-23T10:01:36.436Z,56.40
2022-10-23T10:03:07.004Z,56.74
2022-10-23T10:04:40.300Z,56.78
2022-10-23T10:05:44.205Z,56.77
2022-10-23T10:06:59.580Z,56.81
2022-10-23T10:08:17.907Z,56.92
2022-10-23T10:09:20.192Z,56.40
2022-10-23T10:10:23.526Z,56.40
2022-10-23T10:11:35.392Z,56.08
2022-10-23T10:12:51.740Z,56.29
2022-10-23T10:14:03.281Z,55.89
2022-10-23T10:15:20.659Z,55.70
2022-10-23T10:16:56.734Z,56.46
2022-10-23T10:18:07.664Z,56.03
2022-10-23T10:19:37.905Z,56.07
2022-10-23T10:21:21.823Z,56.13
2022-10-23T10:22:37.901Z,55.62
2022-10-23T10:23:50.472Z,55.89
2022-10-23T10:25:01.971Z,55.41
2022-10-23T10:26:16.677Z,55.81
2022-10-23T10:28:03.569Z,55.90
2022-10-23T10:29:11.716Z,55.50
2022-10-23T10:30:19.295Z,55.44
2022-10-23T10:31:33.451Z,55.84
2022-10-23T10:32:41.375Z,55.40
2022-10-23T10:33:57.935Z,55.72
2022-10-23T10:35:08.646Z,55.68
2022-10-23T10:36:54.655Z,56.01
2022-10-23T10:38:31.611Z,55.57
2022-10-23T10:40:00.856Z,55.12
2022-10-23T10:41:25.088Z,54.98
2022-10-23T10:42:43.270Z,54.77
2022-10-23T10:44:11.017Z,54.97
2022-10-23T10:45:19.862Z,54.97
2022-10-23T10:46:28.975Z,54.69
2022-10-23T10:47:51.872Z,54.96
2022-10-23T10:49:08.223Z,54.67
2022-10-23T10:50:38.037Z,54.80
2022-10-23T10:51:53.243Z,54.82
2022-10-23T10:53:10.180Z,54.52
2022-10-23T10:54:27.768Z,54.80
2022-10-23T10:55:37.755Z,54.81
2022-10-23T10:56:43.934Z,54.69
2022-10-23T10:57:51.248Z,54.75
2022-10-23T10:59:02.215Z,54.92
2022-10-23T11:00:14.018Z,54.90
2022-10-23T11:01:47.431Z,54.80
2022-10-23T11:02:57.551Z,55.04
2022-10-23T11:04:14.758Z,55.46
2022-10-23T11:07:26.866Z,55.18
2022-10-23T11:08:49.845Z,55.42
2022-10-23T11:10:04.779Z,55.01
2022-10-23T11:11:18.157Z,55.19
2022-10-23T11:12:26.642Z,54.94
2022-10-23T11:13:35.922Z,54.70
2022-10-23T11:14:38.395Z,54.75
2022-10-23T11:15:43.225Z,54.55
2022-10-23T11:16:52.120Z,54.34
2022-10-23T11:17:59.723Z,54.09
2022-10-23T11:19:19.861Z,54.44
2022-10-23T11:20:32.275Z,54.71
2022-10-23T11:21:51.918Z,54.77
2022-10-23T11:23:18.375Z,54.87
2022-10-23T11:24:45.298Z,54.54
2022-10-23T11:26:10.859Z,54.52
2022-10-23T11:27:26.253Z,54.41
2022-10-23T11:28:54.771Z,54.65
2022-10-23T11:30:23.978Z,54.74
2022-10-23T11:32:02.295Z,54.66
2022-10-23T11:33:37.653Z,54.93
2022-10-23T11:35:14.900Z,54.92
2022-10-23T11:36:39.098Z,54.33
2022-10-23T11:37:41.802Z,54.38
2022-10-23T11:38:47.539Z,54.30
2022-10-23T11:40:08.063Z,54.86
2022-10-23T11:41:26.720Z,54.98
2022-10-23T11:42:32.844Z,54.76
2022-10-23T11:43:49.038Z,54.71
2022-10-23T11:44:51.360Z,54.78
2022-10-23T11:45:55.601Z,54.82
2022-10-23T11:47:25.867Z,54.81
2022-10-23T11:48:44.002Z,54.55
2022-10-23T11:49:47.652Z,54.95
2022-10-23T11:50:55.644Z,54.67
2022-10-23T11:52:06.027Z,54.62
2022-10-23T11:53:25.817Z,54.89
2022-10-23T11:54:28.015Z,54.82
2022-10-23T11:55:31.883Z,54.60
2022-10-23T11:56:34.354Z,54.55
2022-10-23T11:57:36.615Z,54.56
2022-10-23T11:58:48.055Z,54.84
2022-10-23T11:59:56.409Z,54.70
2022-10-23T12:01:26.490Z,54.94
2022-10-23T12:02:33.006Z,54.97
2022-10-23T12:04:13.753Z,55.13
2022-10-23T12:05:40.608Z,55.26
2022-10-23T12:06:52.917Z,55.22
2022-10-23T12:07:58.857Z,55.20
2022-10-23T12:09:07.996Z,54.99
2022-10-23T12:10:30.128Z,54.92
2022-10-23T12:11:49.168Z,55.07
2022-10-23T12:12:57.622Z,55.18
2022-10-23T12:14:00.004Z,54.82
2022-10-23T12:15:15.753Z,54.87
2022-10-23T12:16:18.060Z,55.03
2022-10-23T12:17:22.989Z,55.13
2022-10-23T12:18:27.609Z,54.87
2022-10-23T12:19:44.534Z,55.13
2022-10-23T12:20:57.766Z,54.76
2022-10-23T12:22:02.322Z,54.88
2022-10-23T12:23:26.465Z,55.26
2022-10-23T12:24:40.033Z,54.98
2022-10-23T12:25:45.418Z,55.17
2022-10-23T12:26:59.537Z,55.22
2022-10-23T12:28:25.895Z,55.10
2022-10-23T12:29:41.085Z,55.56
2022-10-23T12:30:51.028Z,55.29
2022-10-23T12:32:06.158Z,55.64
2022-10-23T12:33:11.299Z,55.47
2022-10-23T12:34:45.664Z,55.51
2022-10-23T12:36:15.656Z,55.68
2022-10-23T12:37:55.260Z,55.58
2022-10-23T12:38:58.807Z,55.84
2022-10-23T12:40:02.035Z,55.47
2022-10-23T12:41:21.458Z,56.02
2022-10-23T12:42:27.516Z,55.90
2022-10-23T12:43:35.921Z,55.68
2022-10-23T12:44:38.152Z,55.55
2022-10-23T12:45:43.692Z,55.75
2022-10-23T12:46:51.197Z,55.60
2022-10-23T12:47:54.021Z,55.79
2022-10-23T12:48:56.994Z,55.85
2022-10-23T12:49:59.327Z,55.90
2022-10-23T12:51:01.564Z,56.03
2022-10-23T12:52:06.221Z,56.02
2022-10-23T12:53:17.957Z,56.22
2022-10-23T12:54:21.431Z,55.93
2022-10-23T12:55:25.894Z,56.02
2022-10-23T12:56:35.188Z,56.55
2022-10-23T12:57:44.299Z,56.33
2022-10-23T12:58:56.151Z,56.27
2022-10-23T13:00:06.286Z,56.46
2022-10-23T13:01:24.152Z,56.16
2022-10-23T13:02:29.716Z,56.68
2022-10-23T13:03:33.866Z,56.40
2022-10-23T13:04:37.046Z,56.19
2022-10-23T13:05:39.361Z,56.28
2022-10-23T13:06:42.093Z,56.41
2022-10-23T13:07:47.363Z,56.26
2022-10-23T13:08:52.610Z,56.30
2022-10-23T13:10:18.134Z,56.31
2022-10-23T13:11:28.683Z,56.49
2022-10-23T13:12:36.799Z,56.71
2022-10-23T13:13:41.691Z,56.66
2022-10-23T13:15:26.921Z,56.76
2022-10-23T13:16:29.208Z,56.63
2022-10-23T13:17:45.462Z,56.61
2022-10-23T13:18:49.082Z,56.85
2022-10-23T13:19:51.353Z,56.73
2022-10-23T13:20:53.612Z,56.85
2022-10-23T13:21:56.445Z,56.74
2022-10-23T13:23:19.695Z,56.70
2022-10-23T13:24:23.228Z,56.92
2022-10-23T13:25:32.159Z,56.82
2022-10-23T13:26:47.651Z,57.08
2022-10-23T13:27:49.981Z,56.98
2022-10-23T13:28:53.245Z,56.93
2022-10-23T13:29:55.469Z,57.11
2022-10-23T13:31:05.277Z,57.20
2022-10-23T13:32:12.829Z,57.00
2022-10-23T13:33:31.303Z,57.04
2022-10-23T13:34:33.692Z,56.93
2022-10-23T13:35:37.458Z,56.90
2022-10-23T13:37:03.613Z,56.98
2022-10-23T13:38:09.633Z,56.91
2022-10-23T13:39:11.812Z,57.08
2022-10-23T13:40:25.830Z,57.19
2022-10-23T13:41:35.811Z,57.14
2022-10-23T13:42:38.062Z,56.83
2022-10-23T13:43:41.250Z,56.98
2022-10-23T13:44:43.583Z,56.97
2022-10-23T13:45:45.792Z,56.98
2022-10-23T13:46:48.951Z,57.35
2022-10-23T13:47:54.039Z,57.37
2022-10-23T13:48:56.254Z,57.56
2022-10-23T13:49:58.467Z,57.54
2022-10-23T13:51:15.616Z,57.42
2022-10-23T13:52:21.578Z,57.40
2022-10-23T13:53:23.827Z,57.47
2022-10-23T13:54:31.449Z,57.38
2022-10-23T13:55:34.280Z,57.24
2022-10-23T13:56:36.633Z,57.40
2022-10-23T13:57:38.858Z,57.50
2022-10-23T13:58:44.174Z,57.36
2022-10-23T13:59:46.431Z,57.63
2022-10-23T14:00:51.084Z,57.47
2022-10-23T14:01:53.580Z,57.19
2022-10-23T14:02:55.849Z,57.50
2022-10-23T14:03:59.299Z,57.48
2022-10-23T14:05:01.491Z,57.22
2022-10-23T14:06:03.758Z,57.46
2022-10-23T14:07:06.021Z,57.18
2022-10-23T14:08:08.378Z,57.42
2022-10-23T14:09:16.029Z,57.24
2022-10-23T14:10:18.342Z,57.11
2022-10-23T14:11:21.498Z,57.30
2022-10-23T14:12:23.792Z,57.31
2022-10-23T14:13:26.003Z,57.40
2022-10-23T14:14:28.252Z,57.15
2022-10-23T14:15:30.479Z,57.42
2022-10-23T14:16:32.927Z,57.32
2022-10-23T14:17:36.182Z,57.36
2022-10-23T14:18:38.422Z,57.37
2022-10-23T14:19:40.614Z,57.21
2022-10-23T14:20:42.927Z,57.30
2022-10-23T14:21:45.098Z,57.11
2022-10-23T14:22:47.502Z,57.24
2022-10-23T14:23:52.153Z,57.48
2022-10-23T14:24:54.378Z,57.26
2022-10-23T14:26:04.154Z,57.11
2022-10-23T14:27:06.350Z,57.28
2022-10-23T14:28:08.586Z,57.29
2022-10-23T14:29:16.318Z,57.27
2022-10-23T14:30:23.751Z,57.32
2022-10-23T14:31:26.250Z,57.17
2022-10-23T14:32:28.505Z,57.27
2022-10-23T14:33:31.057Z,57.18
2022-10-23T14:34:33.313Z,57.03
2022-10-23T14:35:39.917Z,57.16
2022-10-23T14:36:49.689Z,57.02
2022-10-23T14:37:52.288Z,57.37
2022-10-23T14:38:59.080Z,57.37
2022-10-23T14:40:01.293Z,57.15
2022-10-23T14:41:10.019Z,57.45
2022-10-23T14:42:12.890Z,57.28
2022-10-23T14:43:15.107Z,57.42
2022-10-23T14:44:17.324Z,57.59
2022-10-23T14:45:19.576Z,57.73
2022-10-23T14:46:24.903Z,57.73
2022-10-23T14:47:27.137Z,57.56
2022-10-23T14:48:29.381Z,57.66
2022-10-23T14:49:32.509Z,57.74
2022-10-23T14:50:37.218Z,57.51
2022-10-23T14:51:39.439Z,57.83
2022-10-23T14:52:41.761Z,57.62
2022-10-23T14:53:44.109Z,57.59
2022-10-23T14:54:46.328Z,57.90
2022-10-23T14:55:48.512Z,57.80
2022-10-23T14:56:51.025Z,57.76
2022-10-23T14:57:57.125Z,58.04
2022-10-23T14:59:03.172Z,57.79
2022-10-23T15:00:07.076Z,57.79
2022-10-23T15:01:10.772Z,57.99
2022-10-23T15:02:13.757Z,58.00